Time,TemperatureF,DewpointF,PressureIn,WindDirection,WindDirectionDegrees,WindSpeedMPH,WindSpeedGustMPH,Humidity,HourlyPrecipIn,Conditions,Clouds,dailyrainin,SoftwareType,DateUTC
2013-12-02 00:00:00,39.2,28.8,29.98,ESE,105,2.0,3.0,66,0.00,,---,0.00,VWS V14.01,2013-12-02 05:00:00,
2013-12-02 00:15:00,39.9,28.3,29.98,NE,46,1.0,4.0,63,0.00,,---,0.00,VWS V14.01,2013-12-02 05:15:00,
2013-12-02 00:30:00,40.4,29.2,29.98,East,79,1.0,4.0,64,0.00,,---,0.00,VWS V14.01,2013-12-02 05:30:00,
2013-12-02 00:45:00,40.2,29.0,29.97,NE,35,3.0,4.0,64,0.00,,---,0.00,VWS V14.01,2013-12-02 05:45:00,
2013-12-02 01:00:00,39.8,28.2,29.97,NE,40,2.0,5.0,63,0.00,,---,0.00,VWS V14.01,2013-12-02 06:00:00,
2013-12-02 01:15:00,39.8,28.2,29.96,NE,40,4.0,4.0,63,0.00,,---,0.00,VWS V14.01,2013-12-02 06:15:00,
2013-12-02 01:30:00,39.8,27.9,29.96,NE,37,4.0,6.0,62,0.00,,---,0.00,VWS V14.01,2013-12-02 06:30:00,
2013-12-02 01:45:00,39.7,27.8,29.96,NE,35,3.0,5.0,62,0.00,,---,0.00,VWS V14.01,2013-12-02 06:45:00,
2013-12-02 02:00:00,39.5,28.0,29.95,NE,35,2.0,5.0,63,0.00,,---,0.00,VWS V14.01,2013-12-02 07:00:00,
2013-12-02 02:15:00,39.3,28.2,29.95,NE,49,2.0,4.0,64,0.00,,---,0.00,VWS V14.01,2013-12-02 07:15:00,
2013-12-02 02:30:00,39.1,28.0,29.95,NE,49,0.0,3.0,64,0.00,,---,0.00,VWS V14.01,2013-12-02 07:30:00,
2013-12-02 02:45:00,39.2,28.4,29.94,NE,49,1.0,2.0,65,0.00,,---,0.00,VWS V14.01,2013-12-02 07:45:00,
2013-12-02 03:00:00,39.1,28.7,29.94,NE,49,1.0,2.0,66,0.00,,---,0.00,VWS V14.01,2013-12-02 08:00:00,
2013-12-02 03:15:00,39.0,28.2,29.94,NE,49,0.0,2.0,65,0.00,,---,0.00,VWS V14.01,2013-12-02 08:15:00,
2013-12-02 03:30:00,38.9,28.5,29.93,NE,49,0.0,0.0,66,0.00,,---,0.00,VWS V14.01,2013-12-02 08:30:00,
2013-12-02 03:45:00,38.9,28.9,29.93,NE,49,0.0,0.0,67,0.00,,---,0.00,VWS V14.01,2013-12-02 08:45:00,
2013-12-02 04:00:00,38.7,28.7,29.92,NE,49,1.0,2.0,67,0.00,,---,0.00,VWS V14.01,2013-12-02 09:00:00,
2013-12-02 04:15:00,38.7,29.1,29.92,NE,49,0.0,2.0,68,0.00,,---,0.00,VWS V14.01,2013-12-02 09:15:00,
2013-12-02 04:30:00,38.6,29.3,29.92,NE,49,0.0,0.0,69,0.00,,---,0.00,VWS V14.01,2013-12-02 09:30:00,
2013-12-02 04:45:00,38.5,29.6,29.92,NE,49,0.0,0.0,70,0.00,,---,0.00,VWS V14.01,2013-12-02 09:45:00,
2013-12-02 05:00:00,38.5,29.6,29.92,NE,49,0.0,0.0,70,0.00,,---,0.00,VWS V14.01,2013-12-02 10:00:00,
2013-12-02 05:15:00,38.6,29.7,29.92,NE,49,0.0,0.0,70,0.00,,---,0.00,VWS V14.01,2013-12-02 10:15:00,
2013-12-02 05:30:00,38.6,29.7,29.92,NE,49,0.0,1.0,70,0.00,,---,0.00,VWS V14.01,2013-12-02 10:30:00,
2013-12-02 05:45:00,38.7,30.1,29.92,NE,49,0.0,1.0,71,0.00,,---,0.00,VWS V14.01,2013-12-02 10:45:00,
2013-12-02 06:00:00,38.7,30.5,29.92,NE,49,0.0,0.0,72,0.00,,---,0.00,VWS V14.01,2013-12-02 11:00:00,
2013-12-02 06:15:00,38.7,31.5,29.92,NE,49,0.0,0.0,75,0.00,,---,0.00,VWS V14.01,2013-12-02 11:15:00,
2013-12-02 06:30:00,38.7,31.8,29.92,NE,49,0.0,0.0,76,0.00,,---,0.00,VWS V14.01,2013-12-02 11:30:00,
2013-12-02 06:45:00,38.6,32.0,29.92,NE,49,0.0,1.0,77,0.00,,---,0.00,VWS V14.01,2013-12-02 11:45:00,
2013-12-02 07:00:00,38.5,31.9,29.92,NE,49,0.0,2.0,77,0.00,,---,0.00,VWS V14.01,2013-12-02 12:00:00,
2013-12-02 07:15:00,38.9,32.0,29.92,ENE,69,0.0,4.0,76,0.00,,---,0.00,VWS V14.01,2013-12-02 12:15:00,
2013-12-02 07:30:00,39.5,32.2,29.92,ENE,69,0.0,1.0,75,0.00,,---,0.00,VWS V14.01,2013-12-02 12:30:00,
2013-12-02 07:45:00,39.7,32.8,29.92,NW,310,0.0,7.0,76,0.00,,---,0.00,VWS V14.01,2013-12-02 12:45:00,
2013-12-02 08:00:00,39.4,32.8,29.91,NW,310,0.0,1.0,77,0.00,,---,0.00,VWS V14.01,2013-12-02 13:00:00,
2013-12-02 08:15:00,39.1,33.2,29.92,NW,310,0.0,1.0,79,0.01,,---,0.01,VWS V14.01,2013-12-02 13:15:00,
2013-12-02 08:30:00,39.1,33.2,29.92,NW,310,0.0,0.0,79,0.01,,---,0.01,VWS V14.01,2013-12-02 13:30:00,
2013-12-02 08:45:00,39.5,33.8,29.92,NW,310,1.0,1.0,80,0.01,,---,0.01,VWS V14.01,2013-12-02 13:45:00,
2013-12-02 09:00:00,40.1,34.8,29.91,NW,310,0.0,1.0,81,0.01,,---,0.01,VWS V14.01,2013-12-02 14:00:00,
2013-12-02 09:15:00,40.8,35.4,29.92,NW,310,0.0,0.0,81,0.01,,---,0.01,VWS V14.01,2013-12-02 14:15:00,
2013-12-02 09:30:00,41.4,35.7,29.91,NW,318,0.0,0.0,80,0.00,,---,0.01,VWS V14.01,2013-12-02 14:30:00,
2013-12-02 09:45:00,41.9,35.9,29.91,NW,318,0.0,0.0,79,0.00,,---,0.01,VWS V14.01,2013-12-02 14:45:00,
2013-12-02 10:00:00,42.7,36.7,29.91,NW,318,0.0,0.0,79,0.00,,---,0.01,VWS V14.01,2013-12-02 15:00:00,
2013-12-02 10:15:00,43.4,36.7,29.93,NNW,342,0.0,0.0,77,0.00,,---,0.01,VWS V14.01,2013-12-02 15:15:00,
2013-12-02 10:30:00,43.9,36.8,29.91,NNW,342,0.0,0.0,76,0.00,,---,0.01,VWS V14.01,2013-12-02 15:30:00,
2013-12-02 10:45:00,44.7,37.6,29.91,NNW,341,0.0,0.0,76,0.00,,---,0.01,VWS V14.01,2013-12-02 15:45:00,
2013-12-02 11:00:00,46.3,38.1,29.91,NNW,341,0.0,0.0,73,0.00,,---,0.01,VWS V14.01,2013-12-02 16:00:00,
2013-12-02 11:15:00,47.5,36.7,29.90,NNW,341,0.0,0.0,66,0.00,,---,0.01,VWS V14.01,2013-12-02 16:15:00,
2013-12-02 11:30:00,48.7,36.3,29.89,SE,130,3.0,3.0,62,0.00,,---,0.01,VWS V14.01,2013-12-02 16:30:00,
2013-12-02 11:45:00,49.6,37.1,29.88,SE,126,1.0,3.0,62,0.00,,---,0.01,VWS V14.01,2013-12-02 16:45:00,
2013-12-02 12:00:00,50.7,37.3,29.86,SE,126,2.0,3.0,60,0.00,,---,0.01,VWS V14.01,2013-12-02 17:00:00,
2013-12-02 12:15:00,51.1,36.8,29.85,East,97,1.0,5.0,58,0.00,,---,0.01,VWS V14.01,2013-12-02 17:15:00,
2013-12-02 12:30:00,51.9,36.7,29.85,East,97,2.0,4.0,56,0.00,,---,0.01,VWS V14.01,2013-12-02 17:30:00,
2013-12-02 12:45:00,53.0,37.7,29.84,NNW,338,3.0,5.0,56,0.00,,---,0.01,VWS V14.01,2013-12-02 17:45:00,
2013-12-02 13:00:00,52.1,36.0,29.84,NNW,331,0.0,5.0,54,0.00,,---,0.01,VWS V14.01,2013-12-02 18:00:00,
2013-12-02 13:15:00,51.7,36.5,29.84,NNE,23,3.0,5.0,56,0.00,,---,0.01,VWS V14.01,2013-12-02 18:15:00,
2013-12-02 13:30:00,51.6,36.4,29.83,North,8,4.0,6.0,56,0.00,,---,0.01,VWS V14.01,2013-12-02 18:30:00,
2013-12-02 13:45:00,51.0,35.9,29.83,North,5,3.0,8.0,56,0.00,,---,0.01,VWS V14.01,2013-12-02 18:45:00,
2013-12-02 14:00:00,50.7,35.6,29.83,NW,324,1.0,5.0,56,0.00,,---,0.01,VWS V14.01,2013-12-02 19:00:00,
2013-12-02 14:15:00,50.7,35.1,29.82,NNE,30,2.0,5.0,55,0.00,,---,0.01,VWS V14.01,2013-12-02 19:15:00,
2013-12-02 14:30:00,50.4,35.8,29.81,North,1,3.0,5.0,57,0.00,,---,0.01,VWS V14.01,2013-12-02 19:30:00,
2013-12-02 14:45:00,50.2,36.0,29.81,NE,37,1.0,5.0,58,0.00,,---,0.01,VWS V14.01,2013-12-02 19:45:00,
2013-12-02 15:00:00,50.0,35.8,29.81,NE,45,2.0,5.0,58,0.00,,---,0.01,VWS V14.01,2013-12-02 20:00:00,
2013-12-02 15:15:00,49.7,35.5,29.81,NNE,29,3.0,5.0,58,0.00,,---,0.01,VWS V14.01,2013-12-02 20:15:00,
2013-12-02 15:30:00,49.3,35.6,29.81,NNE,33,2.0,4.0,59,0.00,,---,0.01,VWS V14.01,2013-12-02 20:30:00,
2013-12-02 15:45:00,49.1,35.4,29.81,NE,36,2.0,4.0,59,0.00,,---,0.01,VWS V14.01,2013-12-02 20:45:00,
2013-12-02 16:00:00,49.1,35.4,29.81,ENE,61,3.0,4.0,59,0.00,,---,0.01,VWS V14.01,2013-12-02 21:00:00,
2013-12-02 16:15:00,49.2,35.1,29.81,NE,43,1.0,4.0,58,0.00,,---,0.01,VWS V14.01,2013-12-02 21:15:00,
2013-12-02 16:30:00,49.0,35.7,29.81,NE,43,0.0,2.0,60,0.00,,---,0.01,VWS V14.01,2013-12-02 21:30:00,
2013-12-02 16:45:00,48.6,35.4,29.81,NE,43,0.0,2.0,60,0.00,,---,0.01,VWS V14.01,2013-12-02 21:45:00,
2013-12-02 17:00:00,48.3,35.5,29.81,NE,43,0.0,0.0,61,0.00,,---,0.01,VWS V14.01,2013-12-02 22:00:00,
2013-12-02 17:15:00,47.8,35.8,29.81,NE,43,0.0,2.0,63,0.00,,---,0.01,VWS V14.01,2013-12-02 22:15:00,
2013-12-02 17:30:00,47.4,35.0,29.81,NNE,12,1.0,3.0,62,0.00,,---,0.01,VWS V14.01,2013-12-02 22:30:00,
2013-12-02 17:45:00,46.9,35.8,29.81,NNE,12,1.0,2.0,65,0.00,,---,0.01,VWS V14.01,2013-12-02 22:45:00,
2013-12-02 18:00:00,46.1,35.0,29.81,NE,52,0.0,4.0,65,0.00,,---,0.01,VWS V14.01,2013-12-02 23:00:00,
2013-12-02 18:15:00,45.7,35.4,29.81,NE,52,0.0,2.0,67,0.00,,---,0.01,VWS V14.01,2013-12-02 23:15:00,
2013-12-02 18:30:00,45.7,35.4,29.82,NE,52,0.0,2.0,67,0.00,,---,0.01,VWS V14.01,2013-12-02 23:30:00,
2013-12-02 18:45:00,45.8,35.8,29.82,NE,52,0.0,2.0,68,0.00,,---,0.01,VWS V14.01,2013-12-02 23:45:00,
2013-12-02 19:00:00,45.5,35.6,29.82,NE,52,0.0,2.0,68,0.00,,---,0.01,VWS V14.01,2013-12-03 00:00:00,
2013-12-02 19:15:00,45.3,35.7,29.82,East,94,2.0,3.0,69,0.00,,---,0.01,VWS V14.01,2013-12-03 00:15:00,
2013-12-02 19:30:00,45.2,36.0,29.82,East,94,1.0,2.0,70,0.00,,---,0.01,VWS V14.01,2013-12-03 00:30:00,
2013-12-02 19:45:00,45.1,35.9,29.83,East,94,0.0,1.0,70,0.00,,---,0.01,VWS V14.01,2013-12-03 00:45:00,
2013-12-02 20:00:00,45.1,35.9,29.83,East,94,0.0,1.0,70,0.00,,---,0.01,VWS V14.01,2013-12-03 01:00:00,
2013-12-02 20:15:00,45.0,36.2,29.82,East,94,1.0,1.0,71,0.00,,---,0.01,VWS V14.01,2013-12-03 01:15:00,
2013-12-02 20:30:00,44.5,35.7,29.83,East,94,2.0,2.0,71,0.00,,---,0.01,VWS V14.01,2013-12-03 01:30:00,
2013-12-02 20:45:00,44.3,35.9,29.82,East,83,0.0,2.0,72,0.00,,---,0.01,VWS V14.01,2013-12-03 01:45:00,
2013-12-02 21:00:00,44.1,36.0,29.83,East,83,2.0,2.0,73,0.00,,---,0.01,VWS V14.01,2013-12-03 02:00:00,
2013-12-02 21:15:00,43.9,36.2,29.83,East,83,0.0,3.0,74,0.00,,---,0.01,VWS V14.01,2013-12-03 02:15:00,
2013-12-02 21:30:00,43.7,36.0,29.84,ENE,75,0.0,3.0,74,0.00,,---,0.01,VWS V14.01,2013-12-03 02:30:00,
2013-12-02 21:45:00,44.0,35.9,29.83,NE,49,0.0,2.0,73,0.00,,---,0.01,VWS V14.01,2013-12-03 02:45:00,
2013-12-02 22:00:00,43.9,35.5,29.83,NE,49,0.0,2.0,72,0.00,,---,0.01,VWS V14.01,2013-12-03 03:00:00,
2013-12-02 22:15:00,44.3,35.5,29.83,NE,49,0.0,2.0,71,0.00,,---,0.01,VWS V14.01,2013-12-03 03:15:00,
2013-12-02 22:30:00,44.5,35.7,29.83,NE,49,0.0,2.0,71,0.00,,---,0.01,VWS V14.01,2013-12-03 03:30:00,
2013-12-02 22:45:00,44.8,35.6,29.83,NE,52,0.0,3.0,70,0.00,,---,0.01,VWS V14.01,2013-12-03 03:45:00,
2013-12-02 23:00:00,45.0,35.8,29.83,NE,52,0.0,2.0,70,0.00,,---,0.01,VWS V14.01,2013-12-03 04:00:00,
2013-12-02 23:15:00,45.1,35.9,29.83,NE,52,0.0,1.0,70,0.00,,---,0.01,VWS V14.01,2013-12-03 04:15:00,
2013-12-02 23:30:00,44.8,35.6,29.83,NE,49,1.0,3.0,70,0.00,,---,0.01,VWS V14.01,2013-12-03 04:30:00,
2013-12-02 23:45:00,44.7,35.9,29.84,NE,46,0.0,3.0,71,0.00,,---,0.01,VWS V14.01,2013-12-03 04:45:00,